createdAt,value
2019-04-16T06:07:23.778Z,4.60
2019-04-16T06:17:25.895Z,5.10
2019-04-16T06:27:26.638Z,5.60
2019-04-16T08:01:00.045Z,11.10
2019-04-16T08:11:01.322Z,12.60
2019-04-16T08:21:10.182Z,13.80
2019-04-16T08:31:03.881Z,14.70
2019-04-16T08:41:05.932Z,17.60
2019-04-16T08:51:07.213Z,17.50
2019-04-16T09:11:23.221Z,21.10
2019-04-16T09:21:17.309Z,21.10
2019-04-16T09:31:18.801Z,21.30
2019-04-16T09:41:19.949Z,26.30
2019-04-16T09:51:21.510Z,23.30
2019-04-16T10:01:22.556Z,21.10
2019-04-16T10:11:23.820Z,21.40
2019-04-16T10:21:28.228Z,23.90
2019-04-16T10:31:27.525Z,23.60
2019-04-16T10:41:28.822Z,24.40
2019-04-16T10:51:30.869Z,17.50
2019-04-16T11:01:34.978Z,17.40
2019-04-16T11:11:33.482Z,17.50
2019-04-16T11:51:54.595Z,16.70
2019-04-16T12:01:56.645Z,16.00
2019-04-16T12:11:57.903Z,16.00
2019-04-16T12:22:00.018Z,16.40
2019-04-16T12:32:04.293Z,16.40
2019-04-16T12:42:03.401Z,16.50
2019-04-16T12:52:15.278Z,16.40
2019-04-16T13:02:13.290Z,16.60
2019-04-16T13:12:11.834Z,16.30
2019-04-16T13:22:13.144Z,16.50
2019-04-16T13:32:14.421Z,16.60
2019-04-16T13:42:16.453Z,16.60
2019-04-16T13:52:20.475Z,16.60
2019-04-16T14:02:19.015Z,16.30
2019-04-16T14:22:30.332Z,16.20
2019-04-16T14:32:31.634Z,16.30
2019-04-16T14:42:32.953Z,16.50
2019-04-16T14:52:34.254Z,16.40
2019-04-16T15:02:35.529Z,16.50
2019-04-16T15:12:36.828Z,16.00
2019-04-16T15:22:38.111Z,16.00
2019-04-16T15:32:39.434Z,15.90
2019-04-16T15:42:40.726Z,15.80
2019-04-16T15:52:45.922Z,15.70
2019-04-16T16:02:45.395Z,15.60
2019-04-16T16:12:44.619Z,15.50
2019-04-16T16:22:45.878Z,15.40
2019-04-16T16:32:47.139Z,15.20
2019-04-16T16:42:48.425Z,14.80
2019-04-16T16:52:50.184Z,14.50
2019-04-16T17:02:51.089Z,14.60
2019-04-16T17:12:52.366Z,14.10
2019-04-16T17:22:53.766Z,13.60
2019-04-16T17:32:54.983Z,13.00
2019-04-16T17:42:56.247Z,12.50
2019-04-16T17:52:57.539Z,12.00
2019-04-16T18:03:03.042Z,11.00
2019-04-16T18:13:01.693Z,10.60
2019-04-16T18:23:03.974Z,10.60
2019-04-16T18:33:07.418Z,10.10
2019-04-16T18:43:07.385Z,10.00
2019-04-16T18:53:10.808Z,9.80
2019-04-16T19:03:14.601Z,9.80
2019-04-16T19:13:12.268Z,9.40
2019-04-16T19:23:13.641Z,9.10
2019-04-16T19:33:14.998Z,8.80
2019-04-16T19:43:16.334Z,8.50
2019-04-16T19:53:17.604Z,8.30
2019-04-16T20:03:18.907Z,8.00
2019-04-16T20:13:20.190Z,8.00
2019-04-16T20:23:22.215Z,7.60
2019-04-16T20:33:23.493Z,7.50
2019-04-16T20:43:25.537Z,7.20
2019-04-16T20:53:26.821Z,7.20
2019-04-16T21:03:31.133Z,7.10
2019-04-16T21:13:29.441Z,6.90
2019-04-16T21:23:31.869Z,6.80
2019-04-16T21:33:32.064Z,6.50
2019-04-16T21:43:35.732Z,6.40
2019-04-16T21:53:34.670Z,6.30
2019-04-16T22:03:41.900Z,6.10
2019-04-16T22:13:38.007Z,5.90
2019-04-16T22:23:41.322Z,5.90
2019-04-16T22:33:42.605Z,5.70
2019-04-16T22:43:43.885Z,5.70
2019-04-16T22:53:46.426Z,5.60
2019-04-16T23:03:46.487Z,5.60
2019-04-16T23:13:47.771Z,5.50
2019-04-16T23:33:56.551Z,5.10
2019-04-16T23:43:57.983Z,5.00
2019-04-16T23:53:59.133Z,5.00
